AirNav   Everest Fuels
 
 459 users online  

7IN3 Garrett Field Airport
Poseyville, Indiana, USA

GOING TO POSEYVILLE?


FAA INFORMATION EFFECTIVE 18 JUNE 2020

Location

FAA Identifier: 7IN3
Lat/Long: 38-14-35.9700N 087-47-12.5600W
38-14.599500N 087-47.209333W
38.2433250,-87.7868222
(estimated)
Elevation: 400 ft. / 122 m (estimated)
Variation: 02W (2000)
From city: 4 miles N of POSEYVILLE, IN
Time zone: UTC -5 (UTC -6 during Standard Time)
Zip code: 47665

Airport Operations

Airport use: Private use. Permission required prior to landing
Activation date: 10/2002
Control tower: no
ARTCC: INDIANAPOLIS CENTER
FSS: TERRE HAUTE FLIGHT SERVICE STATION
Attendance: UNATNDD
Segmented circle: yes

Airport Communications

WX ASOS at EVV (17 nm SE): 120.2 (812-436-4681)
WX AWOS-3 at CUL (18 nm SW): 118.425 (618-382-3760)

Nearby radio navigation aids

VOR radial/distance  VOR name  Freq  Var
PXVr354/18.9POCKET CITY VORTAC113.3003E
SAMr133/20.2SAMSVILLE VOR/DME116.6003E

 
NDB name  Hdg/Dist  Freq  Var  ID
WAYNE COUNTY107/30.425701WFWC ..-. .-- -.-.
OLNEY151/33.827203WOLY --- .-.. -.--

Airport Services

Runway Information

Runway 9/27

Dimensions: 2400 x 80 ft. / 732 x 24 m
Surface: turf
RUNWAY 9  RUNWAY 27
Traffic pattern: rightleft
Obstructions: 20 ft. pline, 1000 ft. from runway20 ft. trees, 900 ft. from runway

Airport Ownership and Management from official FAA records

Ownership: Privately-owned
Owner: SCOTT GARRETT
11762 W. 800 S.
OWENSVILLE, IN 47665
Phone 812-455-6002
Manager: SCOTT GARRETT
11762 W. 800 S.
OWENSVILLE, IN 47665
Phone 812-455-6002

Airport Operational Statistics

Aircraft based on the field: 2
Single engine airplanes: 2
    

Additional Remarks

FOR CD CTC EVANSVILLE APCH AT 812-436-4690, WHEN APCH CLSD CTC INDIANAPOLIS ARTCC AT 317-247-2411.

Instrument Procedures

There are no published instrument procedures at 7IN3.

Some nearby airports with instrument procedures:

KEVV - Evansville Regional Airport (17 nm SE)
KCUL - Carmi Municipal Airport (18 nm SW)
KAJG - Mount Carmel Municipal Airport (22 nm N)
KEHR - Henderson City-County Airport (27 nm S)
KFWC - Fairfield Municipal Airport (31 nm W)
 
Loc | Ops | Rwys | IFR | FBO | Links
Com | Nav | Svcs | Stats | Notes
Area around 7IN3 (Garrett Field Airport)
 
Road maps at: MapQuest Bing Google
 
Aerial photo
No photo
 
Sectional chart

 
Airport distance calculator
Flying to Garrett Field Airport? Find the distance to fly.

From to 7IN3

Sunrise and sunset
Times for 13-Jul-2020
 Local
(UTC-5)
 Zulu
(UTC)
Morning civil twilight05:0910:09
Sunrise05:4010:40
Sunset20:1401:14
Evening civil twilight20:4501:45

Current date and time
Zulu (UTC)  13-Jul-2020 05:37:20
Local (UTC-5)  13-Jul-2020 00:37:20
 
METAR
KEVV 
17nm SE 
130454Z AUTO 36003KT 10SM CLR 22/19 A2990 RMK AO2 SLP122 T02220194
KCUL 
18nm SW 
130516Z AUTO 01004KT 10SM CLR 21/21 A2990 RMK AO2
KAJG 
22nm N 
130515Z AUTO 03006KT 10SM CLR 22/19 A2991 RMK AO2 T02200193
KI19 
25nm SE 
130515Z AUTO 00000KT 5SM BR CLR 17/17 A2992 RMK AO2 T01720166
KEHR 
26nm S 
130456Z AUTO 00000KT 3SM BR CLR 20/19 A2990 RMK AO2 SLP124 T02000194
KFWC 
31nm W 
130515Z AUTO 36003KT 10SM CLR 21/20 A2990 RMK AO1 T02130204
KLWV 
33nm N 
130453Z AUTO 03008KT 10SM CLR 22/19 A2992 RMK AO2 SLP127 T02220194
KOLY 
34nm NW 
130515Z AUTO 00000KT 10SM CLR 21/21 A2993 RMK AO2 T02110205
TAF
KEVV 
17nm SE 
122204Z 1222/1318 01010G18KT P6SM SCT025 BKN035 TEMPO 1222/1224 BKN025 FM130000 02007KT P6SM SCT050 FM130300 35004KT P6SM SCT250
NOTAMs
Click for the latest NOTAMs
NOTAMs are issued by the DoD/FAA and will open in a separate window not controlled by AirNav.

 

 
 

Would you like to see your business listed on this page?

 If your business provides an interesting product or service to pilots, flight crews, aircraft, or users of the Garrett Field Airport, you should consider listing it here.  To start the listing process, click on the button below
 
Add a business
 

Other Pages about Garrett Field Airport

Update a link
 
Copyright © AirNav, LLC. All rights reserved. Privacy Policy  Contact